New Paris, Ohio
Current Conditions -  °F | °C
As of 4:15 AM on Wednesday 28 Jan 2015 (Local Time) from KMWO Reporting Station
Haze Haze  
Wind Chill: 11°   Ceiling: Unl
Heat Index: 11°   Visibility: 5mi
Dew Point:   Wind: 0mph
Humidity: 82%   Direction: NA
Pressure: 30.33"   Gusts: NA
Location:  39.86°N, 84.79°W
Report Text: KMWO 280915Z AUTO 00000KT 5SM HZ CLR M12/M14 A3033 RMK AO2 T11161141
Loading
Personal Weather Stations






























Interactive Weather Map New forecast layout! Learn more

10-Day Weather Forecast

Advertisements
Track Severe Weather on mobile